Aviation Digital Data Service (ADDS)

Output produced by METARs form (0017 UTC 24 May 2022)
found at http://www.aviationweather.gov/metar/data/
 
OEAB 240000Z 00000KT CAVOK 19/10 Q1021 NOSIG
TAF OEAB 232300Z 2400/2506 03005KT 9000 NSC 
     BECMG 2409/2411 20012KT 7000 FEW020 
     PROB30 
     TEMPO 2412/2416 FEW025CB 
     BECMG 2418/2420 32005KT
       
OEAH 240000Z 35016KT 0600 +BLDU VV010 33/02 Q1003 NOSIG
TAF OEAH 232200Z 2400/2506 36015G25KT 3000 BLDU NSC 
     TEMPO 2400/2406 0500
       
OEBA 240000Z 31003KT 5000 DU SKC 26/13 Q1016 NOSIG
TAF OEBA 232300Z 2400/2506 35005KT 7000 NSC 
     BECMG 2409/2411 22012KT 
     BECMG 2420/2422 VRB03KT
       
OESK 240000Z 32011KT CAVOK 22/01 Q1014 NOSIG
TAF OESK 232300Z 2400/2506 28008KT 7000 NSC 
     TEMPO 2400/2406 4000 DU 
     BECMG 2418/2420 VRB03KT CAVOK
       
OERR 240000Z 32011KT CAVOK 23/03 Q1009 NOSIG
TAF OERR 232300Z 2400/2506 32012KT 6000 NSC 
     TEMPO 2400/2414 2500 BLDU 
     PROB30 
     TEMPO 2401/2410 0800 
     BECMG 2418/2420 VRB03KT 7000 NSC
       
OEBH 240000Z 18004KT 7000 NSC 26/12 Q1011 NOSIG
TAF OEBH 232300Z 2400/2506 30006KT 7000 NSC 
     BECMG 2408/2410 06010KT 
     PROB30 
     TEMPO 2408/2415 4000 DU 
     BECMG 2418/2420 VRB03KT
       
OEGS 240000Z 36010KT 9000 NSC 26/06 Q1009
TAF OEGS 232300Z 2400/2506 02014KT 6000 NSC 
     TEMPO 2400/2408 2500 BLDU 
     BECMG 2408/2410 08012KT 
     TEMPO 2408/2418 3000 DU 
     BECMG 2500/2502 02010KT
       
OEGT 240000Z 31010KT CAVOK 16/02 Q1011 NOSIG
TAF OEGT 232300Z 2400/2506 31008KT 7000 NSC 
     PROB30 
     TEMPO 2400/2409 4000 BLDU 
     BECMG 2406/2408 33014KT
       
OEHL 240000Z 36002KT CAVOK 22/04 Q1013 NOSIG
TAF OEHL 232300Z 2400/2506 02012KT 7000 NSC 
     TEMPO 2400/2415 3000 DU 
     BECMG 2409/2411 08012KT 
     BECMG 2416/2418 02010KT
       
OEGN 240000Z 27004KT 7000 FEW030 31/27 Q1004 NOSIG
TAF OEGN 232300Z 2400/2506 VRB03KT 6000 SCT030 
     TEMPO 2400/2406 3000 BR 
     BECMG 2406/2408 28012KT 8000 FEW040 
     BECMG 2418/2420 VRB03KT 6000 NSC
       
OEJB 232100Z AUTO 32012KT 2100 NSC 33/11 Q1003 NOSIG
OEDR 240000Z 33018KT 0200 BLDU VV/// 31/07 Q1001
TAF OEDR 232200Z 2400/2506 32012G22KT 3000 BLDU NSC 
     TEMPO 2400/2404 0500 
     BECMG 2406/2408 36015G28KT
       
OEJN 240000Z 35006KT CAVOK 27/20 Q1004 NOSIG
TAF OEJN 232300Z 2400/2506 04006KT CAVOK 
     BECMG 2406/2408 32016KT 8000 NSC 
     BECMG 2418/2420 01006KT
       
OEDF 240000Z 35017KT 1500 BLDU NSC 31/13 Q1002 NOSIG
TAF OEDF 232200Z 2400/2506 32012G22KT 3000 BLDU NSC 
     TEMPO 2400/2404 0500 
     BECMG 2406/2408 36015G28KT
       
OEKM 240000Z 00000KT CAVOK 22/13 Q1021 NOSIG
TAF OEKM 232300Z 2400/2506 03005KT 9000 NSC 
     BECMG 2409/2411 20012KT 7000 FEW020 
     PROB30 
     TEMPO 2412/2416 FEW025CB 
     BECMG 2418/2420 32005KT
       
OERK 240000Z 01009KT 1500 DU NSC 29/M02 Q1009 NOSIG
TAF OERK 232300Z 2400/2506 32012KT 4000 BLDU NSC 
     BECMG 2404/2406 05014KT 
     TEMPO 2404/2412 1000 BLDU 
     BECMG 2422/2500 VRB03KT 6000 NSC
       
OENG 240000Z 00000KT CAVOK 25/M02 Q1012 NOSIG
TAF OENG 232300Z 2400/2506 14005KT 7000 NSC 
     BECMG 2406/2408 08010KT 
     PROB30 
     TEMPO 2408/2418 4000 DU 
     BECMG 2418/2420 VRB03KT
       
OEMA 240000Z 04005KT CAVOK 30/M04 Q1010 NOSIG
TAF OEMA 232300Z 2400/2506 VRB03KT 7000 NSC 
     BECMG 2406/2408 13011KT 
     TEMPO 2406/2412 4000 DU 
     BECMG 2415/2417 27010KT
       
OEPS 232356Z 36011G17KT 0800 DS VV012 32/M05 A2981 RMK AO2A SLP058 WND DATA ESTMD T03171053 10376 20317 53001
TAF OEPS 231700Z 2317/2423 33010G15KT 2800 DU SKC QNH2963INS 
     BECMG 2320/2321 03010G20KT 1600 BLDU SKC QNH2982INS 
     TEMPO 2320/2404 04020G30KT 0800 DS 
     BECMG 2404/2405 02010G15KT 1000 DU SKC QNH2986INS 
     BECMG 2406/2407 03015G25KT 1600 BLDU SKC QNH2990INS 
     BECMG 2411/2412 04012G18KT 4000 HZ SKC QNH2991INS TX38/2412Z TN28/2403Z
       
OEPA 240000Z 35006KT 4000 DU NSC 26/06 Q1007 NOSIG
TAF OEPA 232200Z 2400/2506 35010KT 6000 NSC 
     TEMPO 2400/2404 3000 DU 
     BECMG 2416/2418 05008KT 
     TEMPO 2418/2422 3000 DU
       
OERF 240000Z 27005KT CAVOK 22/M01 Q1008 NOSIG
TAF OERF 232300Z 2400/2506 32012KT 6000 NSC 
     TEMPO 2400/2414 2500 BLDU 
     PROB30 
     TEMPO 2401/2410 0800 
     BECMG 2418/2420 VRB03KT 7000 NSC
       
OESH 240000Z 00000KT CAVOK 25/M04 Q1007 NOSIG
TAF OESH 232300Z 2400/2506 19005KT 7000 NSC 
     BECMG 2407/2409 03010KT 
     PROB30 
     TEMPO 2409/2418 4000 DU 
     BECMG 2420/2422 09014KT
       
OETB 240000Z 00000KT CAVOK 21/00 Q1013 NOSIG
TAF OETB 232300Z 2400/2506 VRB03KT 7000 NSC 
     BECMG 2406/2408 35010KT 
     BECMG 2418/2420 VRB03KT CAVOK
       
OETF 240000Z 00000KT 9000 NSC 24/M02 Q1016 NOSIG
TAF OETF 232300Z 2400/2506 VRB03KT 7000 NSC 
     BECMG 2408/2410 31016KT 
     PROB30 
     TEMPO 2408/2418 4000 BLDU 
     BECMG 2420/2422 VRB03KT
       
OETR 240000Z 28010KT CAVOK 16/06 Q1012 NOSIG
TAF OETR 232300Z 2400/2506 33012KT 6000 NSC 
     PROB30 
     TEMPO 2400/2409 2500 BLDU 
     BECMG 2418/2420 34014KT
       
OEWD 240000Z 00000KT 9000 NSC 29/07 Q1005 NOSIG
TAF OEWD 232300Z 2400/2506 28010KT 6000 NSC 
     BECMG 2404/2408 08014KT 
     TEMPO 2404/2420 3000 BLDU 
     PROB30 
     TEMPO 2406/2415 0800 
     BECMG 2421/2423 11019KT
       
OEWJ 240000Z 02004KT CAVOK 22/18 Q1006 NOSIG
TAF OEWJ 232300Z 2400/2506 VRB03KT CAVOK 
     BECMG 2406/2408 33018KT 
     BECMG 2418/2420 33005KT
       
OEYN 240000Z 00000KT CAVOK 24/16 Q1003 NOSIG
TAF OEYN 232300Z 2400/2506 VRB03KT CAVOK 
     BECMG 2406/2408 28018KT 7000 NSC 
     BECMG 2420/2422 VRB03KT CAVOK